createdAt,value
2022-08-24T00:02:02.215Z,6.18
2022-08-24T00:04:31.878Z,6.37
2022-08-24T00:07:01.232Z,6.87
2022-08-24T00:09:30.001Z,6.57
2022-08-24T00:11:58.078Z,6.87
2022-08-24T00:14:26.202Z,6.78
2022-08-24T00:16:54.445Z,6.70
2022-08-24T00:19:22.674Z,7.28
2022-08-24T00:21:51.823Z,7.22
2022-08-24T00:24:20.133Z,6.53
2022-08-24T00:26:49.053Z,7.28
2022-08-24T00:29:18.544Z,7.18
2022-08-24T00:31:46.995Z,7.53
2022-08-24T00:34:16.124Z,6.78
2022-08-24T00:36:44.352Z,7.03
2022-08-24T00:39:12.981Z,7.85
2022-08-24T00:41:45.981Z,7.90
2022-08-24T00:44:14.591Z,7.78
2022-08-24T00:46:43.458Z,7.70
2022-08-24T00:49:19.449Z,7.28
2022-08-24T00:51:55.678Z,7.53
2022-08-24T00:54:27.061Z,7.40
2022-08-24T00:57:01.071Z,7.35
2022-08-24T00:59:34.702Z,8.20
2022-08-24T01:02:15.281Z,7.37
2022-08-24T01:04:58.899Z,8.70
2022-08-24T01:07:29.171Z,7.97
2022-08-24T01:10:00.840Z,7.62
2022-08-24T01:12:31.363Z,7.18
2022-08-24T01:15:01.304Z,8.18
2022-08-24T01:17:48.094Z,7.20
2022-08-24T01:20:16.150Z,7.47
2022-08-24T01:22:59.360Z,8.40
2022-08-24T01:25:28.667Z,7.97
2022-08-24T01:28:00.958Z,8.82
2022-08-24T01:30:36.866Z,8.35
2022-08-24T01:33:08.612Z,8.82
2022-08-24T01:35:38.948Z,9.02
2022-08-24T01:38:09.868Z,8.45
2022-08-24T01:40:43.042Z,8.60
2022-08-24T01:43:12.951Z,8.23
2022-08-24T01:45:41.652Z,8.95
2022-08-24T01:48:10.904Z,8.75
2022-08-24T01:50:39.044Z,8.43
2022-08-24T01:53:09.683Z,9.43
2022-08-24T01:55:37.933Z,9.27
2022-08-24T01:58:06.608Z,10.10
2022-08-24T02:00:36.086Z,9.73
2022-08-24T02:03:05.352Z,9.77
2022-08-24T02:05:33.616Z,10.23
2022-08-24T02:08:01.545Z,9.48
2022-08-24T02:10:30.272Z,9.63
2022-08-24T02:12:58.620Z,10.05
2022-08-24T02:15:32.875Z,10.35
2022-08-24T02:18:01.193Z,9.57
2022-08-24T02:20:30.396Z,9.73
2022-08-24T02:22:58.283Z,9.25
2022-08-24T02:25:27.743Z,10.40
2022-08-24T02:27:56.465Z,10.88
2022-08-24T02:30:24.598Z,10.77
2022-08-24T02:32:52.615Z,10.23
2022-08-24T02:35:22.472Z,10.70
2022-08-24T02:37:50.292Z,11.23
2022-08-24T02:40:18.349Z,12.00
2022-08-24T02:42:46.693Z,10.80
2022-08-24T02:45:14.700Z,10.07
2022-08-24T02:47:42.833Z,11.70
2022-08-24T02:50:14.583Z,11.12
2022-08-24T02:52:43.092Z,11.70
2022-08-24T02:55:15.321Z,11.95
2022-08-24T03:00:19.234Z,10.93
2022-08-24T03:02:52.000Z,10.88
2022-08-24T03:05:22.818Z,10.40
2022-08-24T03:07:52.348Z,11.70
2022-08-24T03:10:21.537Z,11.20
2022-08-24T03:12:50.606Z,10.13
2022-08-24T03:15:24.028Z,10.65
2022-08-24T03:17:52.314Z,11.38
2022-08-24T03:20:22.515Z,11.43
2022-08-24T03:22:50.904Z,11.55
2022-08-24T03:25:20.918Z,11.30
2022-08-24T03:27:48.675Z,11.63
2022-08-24T03:30:18.692Z,12.57
2022-08-24T03:32:46.949Z,12.18
2022-08-24T03:35:15.752Z,11.50
2022-08-24T03:37:43.873Z,12.77
2022-08-24T03:40:22.721Z,12.25
2022-08-24T03:42:53.404Z,10.88
2022-08-24T03:45:23.055Z,12.60
2022-08-24T03:47:51.092Z,12.55
2022-08-24T03:50:20.043Z,13.38
2022-08-24T03:52:48.443Z,12.20
2022-08-24T03:55:16.451Z,12.30
2022-08-24T03:57:44.273Z,14.48
2022-08-24T04:00:13.988Z,13.25
2022-08-24T04:02:42.483Z,13.20
2022-08-24T04:05:12.488Z,12.95
2022-08-24T04:07:41.226Z,14.07
2022-08-24T04:10:09.629Z,12.37
2022-08-24T04:12:38.921Z,12.35
2022-08-24T04:15:08.702Z,13.60
2022-08-24T04:17:37.082Z,13.93
2022-08-24T04:20:07.795Z,13.85
2022-08-24T04:22:37.472Z,13.80
2022-08-24T04:25:09.443Z,13.73
2022-08-24T04:27:39.662Z,12.05
2022-08-24T04:30:09.452Z,12.95
2022-08-24T04:32:38.545Z,12.85
2022-08-24T04:35:07.606Z,11.48
2022-08-24T04:37:35.961Z,11.07
2022-08-24T04:40:05.832Z,11.85
2022-08-24T04:42:35.103Z,11.43
2022-08-24T04:45:04.890Z,11.35
2022-08-24T04:47:33.380Z,10.68
2022-08-24T04:50:01.171Z,10.73
2022-08-24T04:52:30.492Z,10.70
2022-08-24T04:54:59.132Z,10.52
2022-08-24T04:57:27.878Z,9.77
2022-08-24T04:59:58.239Z,10.02
2022-08-24T05:02:27.700Z,10.05
2022-08-24T05:04:58.013Z,9.80
2022-08-24T05:07:26.141Z,8.85
2022-08-24T05:09:57.023Z,9.55
2022-08-24T05:12:29.872Z,9.75
2022-08-24T05:15:00.126Z,8.80
2022-08-24T05:17:32.152Z,9.48
2022-08-24T05:20:06.874Z,8.95
2022-08-24T05:22:38.531Z,8.90
2022-08-24T05:25:07.716Z,9.82
2022-08-24T05:27:39.115Z,8.60
2022-08-24T05:30:11.289Z,9.50
2022-08-24T05:32:42.127Z,8.32
2022-08-24T05:35:11.502Z,8.95
2022-08-24T05:37:45.993Z,8.55
2022-08-24T05:40:17.071Z,9.15
2022-08-24T05:42:46.502Z,8.90
2022-08-24T05:45:15.435Z,9.23
2022-08-24T05:47:43.879Z,8.70
2022-08-24T05:50:12.343Z,8.27
2022-08-24T05:52:40.356Z,7.60
2022-08-24T05:55:09.193Z,7.93
2022-08-24T05:57:38.263Z,7.35
2022-08-24T06:00:11.872Z,7.60
2022-08-24T06:02:44.018Z,7.28
2022-08-24T06:05:12.410Z,8.07
2022-08-24T06:07:40.824Z,7.87
2022-08-24T06:10:34.874Z,7.00
2022-08-24T06:12:58.367Z,6.75
2022-08-24T06:15:26.185Z,6.93
2022-08-24T06:17:54.091Z,6.45
2022-08-24T06:20:22.514Z,6.53
2022-08-24T06:22:51.001Z,6.53
2022-08-24T06:25:37.774Z,6.53
2022-08-24T06:28:05.902Z,7.25
2022-08-24T06:30:34.992Z,6.40
2022-08-24T06:33:03.360Z,6.15
2022-08-24T06:35:32.484Z,6.43
2022-08-24T06:38:00.663Z,6.53
2022-08-24T06:40:28.558Z,5.55
2022-08-24T06:42:56.715Z,5.95
2022-08-24T06:45:29.960Z,6.05
2022-08-24T06:47:58.243Z,5.50
2022-08-24T06:50:26.226Z,5.70
2022-08-24T06:52:54.012Z,5.57
2022-08-24T06:55:22.185Z,5.35
2022-08-24T06:57:52.489Z,5.12
2022-08-24T07:00:21.460Z,6.37
2022-08-24T07:02:50.439Z,5.87
2022-08-24T07:05:18.661Z,5.22
2022-08-24T07:07:48.763Z,5.22
2022-08-24T07:10:17.100Z,5.93
2022-08-24T07:12:50.966Z,5.62
2022-08-24T07:15:20.114Z,6.47
2022-08-24T07:17:48.253Z,5.53
2022-08-24T07:20:17.736Z,5.75
2022-08-24T07:22:48.135Z,6.03
2022-08-24T07:25:16.245Z,6.07
2022-08-24T07:27:43.993Z,6.35
2022-08-24T07:30:28.000Z,6.47
2022-08-24T07:32:59.413Z,6.37
2022-08-24T07:35:30.107Z,6.00
2022-08-24T07:37:59.720Z,6.43
2022-08-24T07:40:29.305Z,5.75
2022-08-24T07:42:58.415Z,5.10
2022-08-24T07:45:28.522Z,5.53
2022-08-24T07:50:25.676Z,5.20
2022-08-24T07:52:53.646Z,4.85
2022-08-24T07:55:21.995Z,4.60
2022-08-24T07:57:50.575Z,4.32
2022-08-24T08:00:22.566Z,4.50
2022-08-24T08:02:50.994Z,4.72
2022-08-24T08:05:22.875Z,4.70
2022-08-24T08:07:52.718Z,4.30
2022-08-24T08:10:23.512Z,4.15
2022-08-24T08:12:52.015Z,2.95
2022-08-24T08:15:20.067Z,3.03
2022-08-24T08:17:52.064Z,2.67
2022-08-24T08:20:24.838Z,2.95
2022-08-24T08:23:11.426Z,3.42
2022-08-24T08:25:42.484Z,3.00
2022-08-24T08:28:25.250Z,3.37
2022-08-24T08:30:55.360Z,3.20
2022-08-24T08:33:24.623Z,3.15
2022-08-24T08:36:15.264Z,3.03
2022-08-24T08:38:44.796Z,3.53
2022-08-24T08:41:31.614Z,3.10
2022-08-24T08:44:05.397Z,3.03
2022-08-24T08:46:51.869Z,3.10
2022-08-24T08:49:46.225Z,2.60
2022-08-24T08:52:30.887Z,3.53
2022-08-24T08:55:18.044Z,3.37
2022-08-24T08:58:03.684Z,3.03
2022-08-24T09:01:04.782Z,3.78
2022-08-24T09:03:55.393Z,3.80
2022-08-24T09:06:35.908Z,2.70
2022-08-24T09:09:46.133Z,3.30
2022-08-24T09:12:50.623Z,3.05
2022-08-24T09:15:31.324Z,3.58
2022-08-24T09:18:23.132Z,3.08
2022-08-24T09:21:00.845Z,3.25
2022-08-24T09:23:34.968Z,4.00
2022-08-24T09:26:27.449Z,3.45
2022-08-24T09:29:10.117Z,2.78
2022-08-24T09:31:49.206Z,3.50
2022-08-24T09:34:29.242Z,3.05
2022-08-24T09:37:24.938Z,3.97
2022-08-24T09:40:01.999Z,3.10
2022-08-24T09:43:13.175Z,3.70
2022-08-24T09:46:23.474Z,3.45
2022-08-24T09:48:57.296Z,5.35
2022-08-24T09:52:23.967Z,3.67
2022-08-24T09:55:12.105Z,3.45
2022-08-24T09:58:01.569Z,3.10
2022-08-24T10:01:23.256Z,3.47
2022-08-24T10:04:28.825Z,2.83
2022-08-24T10:07:08.696Z,3.22
2022-08-24T10:10:09.638Z,2.70
2022-08-24T10:13:04.575Z,2.40
2022-08-24T10:15:46.383Z,3.15
2022-08-24T10:18:39.204Z,2.83
2022-08-24T10:21:35.105Z,2.78
2022-08-24T10:24:05.980Z,3.53
2022-08-24T10:26:55.730Z,2.53
2022-08-24T10:29:32.960Z,2.80
2022-08-24T10:32:38.815Z,3.05
2022-08-24T10:35:10.515Z,3.15
2022-08-24T10:38:13.930Z,4.05
2022-08-24T10:41:26.261Z,3.90
2022-08-24T10:44:31.814Z,4.75
2022-08-24T10:47:01.755Z,4.70
2022-08-24T10:49:48.891Z,5.12
2022-08-24T10:52:38.818Z,5.22
2022-08-24T10:55:19.788Z,4.40
2022-08-24T10:58:12.333Z,4.80
2022-08-24T11:00:41.388Z,4.03
2022-08-24T11:03:19.997Z,3.92
2022-08-24T11:05:57.812Z,3.70
2022-08-24T11:08:28.394Z,4.43
2022-08-24T11:11:14.687Z,4.22
2022-08-24T11:16:38.856Z,4.65
2022-08-24T11:19:13.507Z,4.90
2022-08-24T11:21:52.310Z,5.32
2022-08-24T11:24:40.338Z,6.97
2022-08-24T11:27:20.285Z,5.40
2022-08-24T11:29:54.911Z,6.30
2022-08-24T11:32:47.956Z,6.80
2022-08-24T11:35:34.115Z,6.05
2022-08-24T11:38:17.633Z,5.72
2022-08-24T11:41:28.730Z,6.32
2022-08-24T11:44:09.783Z,6.60
2022-08-24T11:46:47.009Z,6.75
2022-08-24T11:49:47.212Z,7.37
2022-08-24T11:52:23.184Z,7.00
2022-08-24T11:55:25.482Z,7.43
2022-08-24T11:58:00.232Z,7.37
2022-08-24T12:00:40.210Z,7.68
2022-08-24T12:03:30.653Z,7.10
2022-08-24T12:06:19.319Z,6.32
2022-08-24T12:09:06.173Z,3.30
2022-08-24T12:11:51.126Z,2.40
2022-08-24T12:14:30.481Z,3.53
2022-08-24T12:17:18.644Z,5.03
2022-08-24T12:19:52.038Z,5.12
2022-08-24T12:22:20.896Z,5.03
2022-08-24T12:24:55.498Z,4.82
2022-08-24T12:27:33.114Z,5.22
2022-08-24T12:30:09.615Z,6.30
2022-08-24T12:32:42.360Z,7.03
2022-08-24T12:35:49.086Z,7.30
2022-08-24T12:38:26.713Z,7.35
2022-08-24T12:41:03.407Z,8.55
2022-08-24T12:43:51.685Z,8.25
2022-08-24T12:46:24.041Z,9.73
2022-08-24T12:49:01.724Z,8.98
2022-08-24T12:51:52.073Z,9.77
2022-08-24T12:54:33.156Z,10.18
2022-08-24T12:57:33.461Z,9.70
2022-08-24T13:00:36.482Z,9.65
2022-08-24T13:03:42.262Z,11.32
2022-08-24T13:06:48.887Z,11.82
2022-08-24T13:09:33.090Z,12.27
2022-08-24T13:12:33.102Z,13.90
2022-08-24T13:15:20.316Z,13.73
2022-08-24T13:18:09.528Z,13.90
2022-08-24T13:20:44.491Z,12.18
2022-08-24T13:23:16.188Z,12.85
2022-08-24T13:25:47.571Z,13.18
2022-08-24T13:28:24.005Z,12.63
2022-08-24T13:30:52.131Z,12.50
2022-08-24T13:33:30.334Z,13.07
2022-08-24T13:36:28.898Z,12.32
2022-08-24T13:39:02.904Z,11.55
2022-08-24T13:41:40.151Z,14.70
2022-08-24T13:44:21.463Z,11.75
2022-08-24T13:47:05.630Z,13.32
2022-08-24T13:49:46.282Z,11.12
2022-08-24T13:52:39.626Z,13.10
2022-08-24T13:55:14.004Z,12.27
2022-08-24T13:58:10.950Z,12.37
2022-08-24T14:00:39.544Z,12.18
2022-08-24T14:03:22.271Z,12.07
2022-08-24T14:06:01.983Z,11.38
2022-08-24T14:08:40.328Z,12.90
2022-08-24T14:11:34.574Z,13.13
2022-08-24T14:14:38.934Z,12.50
2022-08-24T14:17:55.188Z,12.27
2022-08-24T14:21:22.712Z,11.73
2022-08-24T14:24:00.752Z,12.05
2022-08-24T14:26:35.084Z,11.80
2022-08-24T14:29:18.066Z,13.05
2022-08-24T14:32:00.004Z,12.45
2022-08-24T14:34:42.147Z,12.93
2022-08-24T14:37:12.997Z,12.13
2022-08-24T14:39:52.544Z,10.85
2022-08-24T14:43:00.451Z,10.82
2022-08-24T14:45:52.057Z,9.77
2022-08-24T14:48:44.344Z,11.25
2022-08-24T14:51:31.875Z,11.75
2022-08-24T14:54:23.245Z,10.35
2022-08-24T14:57:05.544Z,11.43
2022-08-24T14:59:46.598Z,11.07
2022-08-24T15:02:29.736Z,10.48
2022-08-24T15:05:23.635Z,10.45
2022-08-24T15:08:32.614Z,9.85
2022-08-24T15:11:17.925Z,10.38
2022-08-24T15:13:55.903Z,9.70
2022-08-24T15:16:53.211Z,10.43
2022-08-24T15:22:25.549Z,9.93
2022-08-24T15:25:07.745Z,10.73
2022-08-24T15:27:56.003Z,9.77
2022-08-24T15:30:30.464Z,9.23
2022-08-24T15:33:10.775Z,8.63
2022-08-24T15:36:09.479Z,8.18
2022-08-24T15:38:39.604Z,6.78
2022-08-24T15:41:32.327Z,7.05
2022-08-24T15:44:05.080Z,7.18
2022-08-24T15:46:41.245Z,7.28
2022-08-24T15:49:22.508Z,7.18
2022-08-24T15:52:10.507Z,6.32
2022-08-24T15:54:42.189Z,7.25
2022-08-24T15:57:19.120Z,6.68
2022-08-24T15:59:49.829Z,5.95
2022-08-24T16:02:29.253Z,6.18
2022-08-24T16:05:21.638Z,7.03
2022-08-24T16:08:04.901Z,5.93
2022-08-24T16:10:51.471Z,6.25
2022-08-24T16:13:19.181Z,5.95
2022-08-24T16:16:03.130Z,6.85
2022-08-24T16:18:49.238Z,6.03
2022-08-24T16:21:45.269Z,6.07
2022-08-24T16:24:25.818Z,6.28
2022-08-24T16:27:15.419Z,5.10
2022-08-24T16:29:51.152Z,6.00
2022-08-24T16:32:32.190Z,5.60
2022-08-24T16:35:11.158Z,5.97
2022-08-24T16:37:39.972Z,6.75
2022-08-24T16:40:09.320Z,5.68
2022-08-24T16:42:37.779Z,6.45
2022-08-24T16:45:07.258Z,6.00
2022-08-24T16:47:35.021Z,6.97
2022-08-24T16:50:03.549Z,6.53
2022-08-24T16:52:31.558Z,7.37
2022-08-24T16:55:01.639Z,6.37
2022-08-24T16:57:31.659Z,7.03
2022-08-24T16:59:59.949Z,6.07
2022-08-24T17:02:27.697Z,6.00
2022-08-24T17:04:56.311Z,5.70
2022-08-24T17:07:27.999Z,6.35
2022-08-24T17:09:56.649Z,6.78
2022-08-24T17:12:24.758Z,5.97
2022-08-24T17:14:53.767Z,5.78
2022-08-24T17:17:23.619Z,6.57
2022-08-24T17:19:53.693Z,5.80
2022-08-24T17:22:25.938Z,5.57
2022-08-24T17:24:54.283Z,6.12
2022-08-24T17:27:27.069Z,5.43
2022-08-24T17:29:55.178Z,5.75
2022-08-24T17:32:23.329Z,6.18
2022-08-24T17:34:50.999Z,5.93
2022-08-24T17:37:19.371Z,6.68
2022-08-24T17:39:52.490Z,6.70
2022-08-24T17:42:48.986Z,6.53
2022-08-24T17:45:13.116Z,5.70
2022-08-24T17:47:43.293Z,6.43
2022-08-24T17:50:13.078Z,6.28
2022-08-24T17:52:41.518Z,6.93
2022-08-24T17:55:11.139Z,7.43
2022-08-24T17:57:39.557Z,6.15
2022-08-24T18:00:10.730Z,6.45
2022-08-24T18:02:41.388Z,5.47
2022-08-24T18:05:11.641Z,5.95
2022-08-24T18:07:53.274Z,6.28
2022-08-24T18:10:26.091Z,6.70
2022-08-24T18:12:56.080Z,7.22
2022-08-24T18:15:36.046Z,6.93
2022-08-24T18:18:08.734Z,6.90
2022-08-24T18:20:40.159Z,6.43
2022-08-24T18:23:11.210Z,6.80
2022-08-24T18:25:45.780Z,6.68
2022-08-24T18:28:14.568Z,5.55
2022-08-24T18:30:44.266Z,7.00
2022-08-24T18:33:12.821Z,6.40
2022-08-24T18:35:40.694Z,6.47
2022-08-24T18:38:08.820Z,6.07
2022-08-24T18:40:36.900Z,6.53
2022-08-24T18:43:05.160Z,6.85
2022-08-24T18:45:34.146Z,6.35
2022-08-24T18:48:02.726Z,6.07
2022-08-24T18:50:31.078Z,5.85
2022-08-24T18:52:59.648Z,6.40
2022-08-24T18:55:27.663Z,5.82
2022-08-24T18:57:57.059Z,6.50
2022-08-24T19:00:25.628Z,6.22
2022-08-24T19:02:53.623Z,7.07
2022-08-24T19:05:24.158Z,6.03
2022-08-24T19:07:54.784Z,5.72
2022-08-24T19:10:26.198Z,6.03
2022-08-24T19:12:58.881Z,5.78
2022-08-24T19:15:32.626Z,6.72
2022-08-24T19:18:11.406Z,5.87
2022-08-24T19:20:44.663Z,6.75
2022-08-24T19:23:25.006Z,6.07
2022-08-24T19:25:54.751Z,7.55
2022-08-24T19:28:24.899Z,6.35
2022-08-24T19:30:57.888Z,7.15
2022-08-24T19:33:32.669Z,5.93
2022-08-24T19:36:00.859Z,5.93
2022-08-24T19:38:29.696Z,6.07
2022-08-24T19:40:59.659Z,7.82
2022-08-24T19:43:28.548Z,5.62
2022-08-24T19:46:05.509Z,6.22
2022-08-24T19:48:37.218Z,7.43
2022-08-24T19:51:08.131Z,6.20
2022-08-24T19:53:37.540Z,5.78
2022-08-24T19:56:07.249Z,5.62
2022-08-24T19:58:50.270Z,5.28
2022-08-24T20:01:31.688Z,5.57
2022-08-24T20:04:04.362Z,6.05
2022-08-24T20:06:35.269Z,5.68
2022-08-24T20:09:05.109Z,5.60
2022-08-24T20:11:32.870Z,5.72
2022-08-24T20:14:02.679Z,6.05
2022-08-24T20:16:39.639Z,4.87
2022-08-24T20:19:08.140Z,5.62
2022-08-24T20:21:37.792Z,6.30
2022-08-24T20:24:06.639Z,5.37
2022-08-24T20:26:42.039Z,5.90
2022-08-24T20:29:11.150Z,5.97
2022-08-24T20:31:40.265Z,5.50
2022-08-24T20:34:08.068Z,5.10
2022-08-24T20:36:39.060Z,5.05
2022-08-24T20:39:10.080Z,6.15
2022-08-24T20:41:38.648Z,5.72
2022-08-24T20:44:09.368Z,5.50
2022-08-24T20:46:38.201Z,5.35
2022-08-24T20:49:07.468Z,5.45
2022-08-24T20:51:38.812Z,5.72
2022-08-24T20:54:08.580Z,5.90
2022-08-24T20:56:38.172Z,5.20
2022-08-24T20:59:11.620Z,5.62
2022-08-24T21:01:42.985Z,5.32
2022-08-24T21:04:10.794Z,5.68
2022-08-24T21:06:40.968Z,5.43
2022-08-24T21:09:12.794Z,5.78
2022-08-24T21:11:43.656Z,5.82
2022-08-24T21:14:11.427Z,5.32
2022-08-24T21:16:41.539Z,6.03
2022-08-24T21:19:12.772Z,5.18
2022-08-24T21:21:42.419Z,6.10
2022-08-24T21:24:10.869Z,5.10
2022-08-24T21:26:39.588Z,6.05
2022-08-24T21:29:09.138Z,5.47
2022-08-24T21:31:38.099Z,4.97
2022-08-24T21:34:26.538Z,6.30
2022-08-24T21:36:54.905Z,4.85
2022-08-24T21:39:22.557Z,5.22
2022-08-24T21:41:50.261Z,5.62
2022-08-24T21:44:18.348Z,5.95
2022-08-24T21:46:46.063Z,5.97
2022-08-24T21:49:14.038Z,6.00
2022-08-24T21:51:42.184Z,5.55
2022-08-24T21:54:09.941Z,5.60
2022-08-24T21:56:37.761Z,6.47
2022-08-24T21:59:07.139Z,5.22
2022-08-24T22:01:35.298Z,5.57
2022-08-24T22:04:03.588Z,5.80
2022-08-24T22:06:31.966Z,5.50
2022-08-24T22:09:00.730Z,5.07
2022-08-24T22:11:29.497Z,5.35
2022-08-24T22:13:57.386Z,4.93
2022-08-24T22:16:25.986Z,6.00
2022-08-24T22:18:54.239Z,5.85
2022-08-24T22:21:24.770Z,4.95
2022-08-24T22:23:53.078Z,5.00
2022-08-24T22:26:27.988Z,5.30
2022-08-24T22:28:56.963Z,5.12
2022-08-24T22:31:28.093Z,5.60
2022-08-24T22:33:57.528Z,5.35
2022-08-24T22:36:26.908Z,6.43
2022-08-24T22:38:56.368Z,4.80
2022-08-24T22:41:25.219Z,4.50
2022-08-24T22:44:14.350Z,5.90
2022-08-24T22:46:42.129Z,5.12
2022-08-24T22:49:10.778Z,4.35
2022-08-24T22:51:39.309Z,5.28
2022-08-24T22:54:07.518Z,4.87
2022-08-24T22:56:38.590Z,5.62
2022-08-24T22:59:07.324Z,5.22
2022-08-24T23:01:40.545Z,5.22
2022-08-24T23:04:12.721Z,4.70
2022-08-24T23:06:41.138Z,4.37
2022-08-24T23:09:09.421Z,5.07
2022-08-24T23:11:37.588Z,6.05
2022-08-24T23:14:07.150Z,4.87
2022-08-24T23:16:37.048Z,5.12
2022-08-24T23:19:25.798Z,4.85
2022-08-24T23:21:53.983Z,4.70
2022-08-24T23:24:22.347Z,5.95
2022-08-24T23:26:50.608Z,4.70
2022-08-24T23:29:18.480Z,4.45
2022-08-24T23:31:47.448Z,4.85
2022-08-24T23:34:16.292Z,5.30
2022-08-24T23:36:44.394Z,5.53
2022-08-24T23:39:13.179Z,5.87
2022-08-24T23:41:46.269Z,5.47
2022-08-24T23:44:19.477Z,5.10
2022-08-24T23:46:47.929Z,5.30
2022-08-24T23:49:21.349Z,4.85
2022-08-24T23:51:49.557Z,5.28
2022-08-24T23:54:21.107Z,4.87
2022-08-24T23:56:49.569Z,4.93
2022-08-24T23:59:22.119Z,5.57
